sensor_id;sensor_type;location;lat;lon;timestamp;pressure;altitude;pressure_sealevel;temperature
15709;BMP180;7954;51.914;8.420;2023-07-20T00:00:01;100099.19;;;22.98
15709;BMP180;7954;51.914;8.420;2023-07-20T00:02:30;100101.25;;;22.93
15709;BMP180;7954;51.914;8.420;2023-07-20T00:04:58;100102.78;;;22.84
15709;BMP180;7954;51.914;8.420;2023-07-20T00:07:26;100093.59;;;22.86
15709;BMP180;7954;51.914;8.420;2023-07-20T00:09:54;100093.19;;;22.90
15709;BMP180;7954;51.914;8.420;2023-07-20T00:12:21;100095.38;;;22.87
15709;BMP180;7954;51.914;8.420;2023-07-20T00:14:51;100092.81;;;22.87
15709;BMP180;7954;51.914;8.420;2023-07-20T00:17:20;100095.75;;;22.90
15709;BMP180;7954;51.914;8.420;2023-07-20T00:19:48;100098.75;;;22.86
15709;BMP180;7954;51.914;8.420;2023-07-20T00:22:16;100099.09;;;22.82
15709;BMP180;7954;51.914;8.420;2023-07-20T00:24:44;100102.09;;;22.78
15709;BMP180;7954;51.914;8.420;2023-07-20T00:27:12;100094.25;;;22.70
15709;BMP180;7954;51.914;8.420;2023-07-20T00:29:41;100093.75;;;22.65
15709;BMP180;7954;51.914;8.420;2023-07-20T00:32:11;100096.34;;;22.59
15709;BMP180;7954;51.914;8.420;2023-07-20T00:34:39;100098.19;;;22.60
15709;BMP180;7954;51.914;8.420;2023-07-20T00:37:08;100102.19;;;22.64
15709;BMP180;7954;51.914;8.420;2023-07-20T00:39:36;100092.34;;;22.54
15709;BMP180;7954;51.914;8.420;2023-07-20T00:42:05;100080.16;;;22.60
15709;BMP180;7954;51.914;8.420;2023-07-20T00:44:33;100087.19;;;22.54
15709;BMP180;7954;51.914;8.420;2023-07-20T00:47:01;100087.19;;;22.54
15709;BMP180;7954;51.914;8.420;2023-07-20T00:49:31;100082.22;;;22.55
15709;BMP180;7954;51.914;8.420;2023-07-20T00:52:00;100081.31;;;22.55
15709;BMP180;7954;51.914;8.420;2023-07-20T00:54:29;100088.06;;;22.61
15709;BMP180;7954;51.914;8.420;2023-07-20T00:57:00;100089.19;;;22.56
15709;BMP180;7954;51.914;8.420;2023-07-20T00:59:29;100084.22;;;22.58
15709;BMP180;7954;51.914;8.420;2023-07-20T01:01:57;100084.22;;;22.58
15709;BMP180;7954;51.914;8.420;2023-07-20T01:04:26;100083.16;;;22.56
15709;BMP180;7954;51.914;8.420;2023-07-20T01:07:00;100092.03;;;22.44
15709;BMP180;7954;51.914;8.420;2023-07-20T01:09:35;100098.09;;;22.44
15709;BMP180;7954;51.914;8.420;2023-07-20T01:12:09;100084.31;;;22.44
15709;BMP180;7954;51.914;8.420;2023-07-20T01:14:40;100078.84;;;22.41
15709;BMP180;7954;51.914;8.420;2023-07-20T01:17:08;100080.31;;;22.39
15709;BMP180;7954;51.914;8.420;2023-07-20T01:19:36;100085.31;;;22.30
15709;BMP180;7954;51.914;8.420;2023-07-20T01:22:25;100086.59;;;22.27
15709;BMP180;7954;51.914;8.420;2023-07-20T01:25:10;100069.66;;;22.36
15709;BMP180;7954;51.914;8.420;2023-07-20T01:28:08;100084.25;;;22.28
15709;BMP180;7954;51.914;8.420;2023-07-20T01:30:51;100089.31;;;22.35
15709;BMP180;7954;51.914;8.420;2023-07-20T01:33:24;100085.13;;;22.36
15709;BMP180;7954;51.914;8.420;2023-07-20T01:35:54;100084.16;;;22.35
15709;BMP180;7954;51.914;8.420;2023-07-20T01:38:23;100088.44;;;22.28
15709;BMP180;7954;51.914;8.420;2023-07-20T01:40:52;100091.75;;;22.27
15709;BMP180;7954;51.914;8.420;2023-07-20T01:43:20;100090.91;;;22.12
15709;BMP180;7954;51.914;8.420;2023-07-20T01:45:48;100089.63;;;22.02
15709;BMP180;7954;51.914;8.420;2023-07-20T01:48:16;100087.59;;;22.06
15709;BMP180;7954;51.914;8.420;2023-07-20T01:50:46;100085.38;;;22.09
15709;BMP180;7954;51.914;8.420;2023-07-20T01:53:14;100073.06;;;22.07
15709;BMP180;7954;51.914;8.420;2023-07-20T01:55:42;100076.03;;;22.03
15709;BMP180;7954;51.914;8.420;2023-07-20T01:58:10;100083.03;;;22.04
15709;BMP180;7954;51.914;8.420;2023-07-20T02:00:38;100074.00;;;22.07
15709;BMP180;7954;51.914;8.420;2023-07-20T02:03:06;100084.31;;;22.07
15709;BMP180;7954;51.914;8.420;2023-07-20T02:05:34;100084.88;;;22.05
15709;BMP180;7954;51.914;8.420;2023-07-20T02:08:05;100080.13;;;22.01
15709;BMP180;7954;51.914;8.420;2023-07-20T02:10:33;100088.00;;;22.02
15709;BMP180;7954;51.914;8.420;2023-07-20T02:13:01;100084.50;;;22.02
15709;BMP180;7954;51.914;8.420;2023-07-20T02:15:29;100079.56;;;21.97
15709;BMP180;7954;51.914;8.420;2023-07-20T02:17:57;100078.78;;;22.04
15709;BMP180;7954;51.914;8.420;2023-07-20T02:20:25;100076.22;;;22.04
15709;BMP180;7954;51.914;8.420;2023-07-20T02:22:54;100076.78;;;22.02
15709;BMP180;7954;51.914;8.420;2023-07-20T02:25:24;100080.47;;;21.97
15709;BMP180;7954;51.914;8.420;2023-07-20T02:27:52;100075.31;;;22.04
15709;BMP180;7954;51.914;8.420;2023-07-20T02:30:21;100071.47;;;22.00
15709;BMP180;7954;51.914;8.420;2023-07-20T02:32:49;100072.03;;;21.98
15709;BMP180;7954;51.914;8.420;2023-07-20T02:35:17;100067.25;;;22.01
15709;BMP180;7954;51.914;8.420;2023-07-20T02:37:45;100065.00;;;22.11
15709;BMP180;7954;51.914;8.420;2023-07-20T02:40:13;100065.00;;;22.11
15709;BMP180;7954;51.914;8.420;2023-07-20T02:42:43;100061.88;;;22.06
15709;BMP180;7954;51.914;8.420;2023-07-20T02:45:12;100063.88;;;22.16
15709;BMP180;7954;51.914;8.420;2023-07-20T02:47:41;100066.13;;;22.06
15709;BMP180;7954;51.914;8.420;2023-07-20T02:50:09;100074.19;;;22.09
15709;BMP180;7954;51.914;8.420;2023-07-20T02:52:40;100078.94;;;22.13
15709;BMP180;7954;51.914;8.420;2023-07-20T02:55:09;100074.91;;;22.15
15709;BMP180;7954;51.914;8.420;2023-07-20T02:57:37;100072.66;;;22.18
15709;BMP180;7954;51.914;8.420;2023-07-20T03:00:08;100075.22;;;22.18
15709;BMP180;7954;51.914;8.420;2023-07-20T03:02:38;100081.50;;;22.13
15709;BMP180;7954;51.914;8.420;2023-07-20T03:05:07;100080.63;;;22.05
15709;BMP180;7954;51.914;8.420;2023-07-20T03:07:35;100084.88;;;22.05
15709;BMP180;7954;51.914;8.420;2023-07-20T03:10:04;100090.00;;;22.05
15709;BMP180;7954;51.914;8.420;2023-07-20T03:12:33;100075.31;;;21.97
15709;BMP180;7954;51.914;8.420;2023-07-20T03:15:02;100075.31;;;21.97
15709;BMP180;7954;51.914;8.420;2023-07-20T03:17:31;100076.03;;;22.03
15709;BMP180;7954;51.914;8.420;2023-07-20T03:20:00;100084.50;;;22.02
15709;BMP180;7954;51.914;8.420;2023-07-20T03:22:30;100083.94;;;22.04
15709;BMP180;7954;51.914;8.420;2023-07-20T03:24:57;100085.44;;;22.02
15709;BMP180;7954;51.914;8.420;2023-07-20T03:27:26;100082.47;;;22.06
15709;BMP180;7954;51.914;8.420;2023-07-20T03:29:55;100100.47;;;21.99
15709;BMP180;7954;51.914;8.420;2023-07-20T03:32:23;100105.31;;;21.90
15709;BMP180;7954;51.914;8.420;2023-07-20T03:34:53;100100.38;;;21.91
15709;BMP180;7954;51.914;8.420;2023-07-20T03:37:21;100092.25;;;21.95
15709;BMP180;7954;51.914;8.420;2023-07-20T03:39:49;100094.91;;;21.74
15709;BMP180;7954;51.914;8.420;2023-07-20T03:42:17;100101.50;;;21.72
15709;BMP180;7954;51.914;8.420;2023-07-20T03:44:45;100098.63;;;21.34
15709;BMP180;7954;51.914;8.420;2023-07-20T03:47:14;100101.56;;;21.37
15709;BMP180;7954;51.914;8.420;2023-07-20T03:49:42;100102.31;;;21.36
15709;BMP180;7954;51.914;8.420;2023-07-20T03:52:12;100099.94;;;21.17
15709;BMP180;7954;51.914;8.420;2023-07-20T03:54:40;100096.09;;;21.14
15709;BMP180;7954;51.914;8.420;2023-07-20T03:57:08;100098.47;;;21.05
15709;BMP180;7954;51.914;8.420;2023-07-20T03:59:37;100106.53;;;21.15
15709;BMP180;7954;51.914;8.420;2023-07-20T04:02:05;100095.38;;;21.22
15709;BMP180;7954;51.914;8.420;2023-07-20T04:04:33;100105.25;;;21.26
15709;BMP180;7954;51.914;8.420;2023-07-20T04:07:01;100112.22;;;21.20
15709;BMP180;7954;51.914;8.420;2023-07-20T04:09:31;100097.56;;;21.12
15709;BMP180;7954;51.914;8.420;2023-07-20T04:11:59;100106.75;;;21.17
15709;BMP180;7954;51.914;8.420;2023-07-20T04:14:28;100095.91;;;21.19
15709;BMP180;7954;51.914;8.420;2023-07-20T04:16:55;100108.19;;;21.15
15709;BMP180;7954;51.914;8.420;2023-07-20T04:19:23;100105.63;;;21.22
15709;BMP180;7954;51.914;8.420;2023-07-20T04:21:51;100120.28;;;21.30
15709;BMP180;7954;51.914;8.420;2023-07-20T04:24:19;100119.75;;;21.25
15709;BMP180;7954;51.914;8.420;2023-07-20T04:26:49;100120.66;;;21.32
15709;BMP180;7954;51.914;8.420;2023-07-20T04:29:17;100126.53;;;21.38
15709;BMP180;7954;51.914;8.420;2023-07-20T04:31:46;100127.09;;;21.15
15709;BMP180;7954;51.914;8.420;2023-07-20T04:34:14;100127.66;;;21.20
15709;BMP180;7954;51.914;8.420;2023-07-20T04:36:43;100131.31;;;21.22
15709;BMP180;7954;51.914;8.420;2023-07-20T04:39:12;100132.22;;;21.36
15709;BMP180;7954;51.914;8.420;2023-07-20T04:41:58;100138.66;;;21.53
15709;BMP180;7954;51.914;8.420;2023-07-20T04:44:26;100137.56;;;21.51
15709;BMP180;7954;51.914;8.420;2023-07-20T04:46:54;100148.03;;;21.53
15709;BMP180;7954;51.914;8.420;2023-07-20T04:49:22;100146.19;;;21.59
15709;BMP180;7954;51.914;8.420;2023-07-20T04:51:51;100146.34;;;21.46
15709;BMP180;7954;51.914;8.420;2023-07-20T04:54:19;100153.28;;;21.47
15709;BMP180;7954;51.914;8.420;2023-07-20T04:56:47;100151.13;;;21.30
15709;BMP180;7954;51.914;8.420;2023-07-20T04:59:18;100158.81;;;21.30
15709;BMP180;7954;51.914;8.420;2023-07-20T05:01:46;100160.66;;;21.24
15709;BMP180;7954;51.914;8.420;2023-07-20T05:04:15;100157.00;;;21.22
15709;BMP180;7954;51.914;8.420;2023-07-20T05:06:44;100162.88;;;21.21
15709;BMP180;7954;51.914;8.420;2023-07-20T05:09:12;100162.31;;;21.23
15709;BMP180;7954;51.914;8.420;2023-07-20T05:11:40;100169.09;;;21.23
15709;BMP180;7954;51.914;8.420;2023-07-20T05:14:08;100170.94;;;21.10
15709;BMP180;7954;51.914;8.420;2023-07-20T05:16:37;100180.28;;;21.37
15709;BMP180;7954;51.914;8.420;2023-07-20T05:19:05;100170.56;;;21.62
15709;BMP180;7954;51.914;8.420;2023-07-20T05:21:33;100177.34;;;21.83
15709;BMP180;7954;51.914;8.420;2023-07-20T05:24:02;100171.09;;;21.88
15709;BMP180;7954;51.914;8.420;2023-07-20T05:26:30;100164.66;;;21.84
15709;BMP180;7954;51.914;8.420;2023-07-20T05:28:59;100159.06;;;22.09
15709;BMP180;7954;51.914;8.420;2023-07-20T05:31:27;100154.75;;;22.37
15709;BMP180;7954;51.914;8.420;2023-07-20T05:33:58;100145.00;;;22.71
15709;BMP180;7954;51.914;8.420;2023-07-20T05:36:26;100151.94;;;23.08
15709;BMP180;7954;51.914;8.420;2023-07-20T05:38:55;100155.03;;;23.35
15709;BMP180;7954;51.914;8.420;2023-07-20T05:41:22;100160.50;;;23.60
15709;BMP180;7954;51.914;8.420;2023-07-20T05:43:51;100157.31;;;23.85
15709;BMP180;7954;51.914;8.420;2023-07-20T05:46:19;100161.34;;;24.05
15709;BMP180;7954;51.914;8.420;2023-07-20T05:48:47;100158.94;;;24.07
15709;BMP180;7954;51.914;8.420;2023-07-20T05:51:17;100157.00;;;23.97
15709;BMP180;7954;51.914;8.420;2023-07-20T05:53:45;100164.06;;;23.76
15709;BMP180;7954;51.914;8.420;2023-07-20T05:56:14;100160.66;;;23.62
15709;BMP180;7954;51.914;8.420;2023-07-20T05:58:44;100166.75;;;23.62
15709;BMP180;7954;51.914;8.420;2023-07-20T06:01:13;100172.22;;;23.50
15709;BMP180;7954;51.914;8.420;2023-07-20T06:03:41;100185.38;;;22.86
15709;BMP180;7954;51.914;8.420;2023-07-20T06:06:09;100181.47;;;22.60
15709;BMP180;7954;51.914;8.420;2023-07-20T06:08:40;100182.44;;;22.47
15709;BMP180;7954;51.914;8.420;2023-07-20T06:11:08;100190.75;;;22.44
15709;BMP180;7954;51.914;8.420;2023-07-20T06:13:36;100191.16;;;22.26
15709;BMP180;7954;51.914;8.420;2023-07-20T06:16:04;100191.00;;;22.18
15709;BMP180;7954;51.914;8.420;2023-07-20T06:18:33;100195.59;;;22.27
15709;BMP180;7954;51.914;8.420;2023-07-20T06:21:02;100212.50;;;22.32
15709;BMP180;7954;51.914;8.420;2023-07-20T06:23:30;100204.78;;;22.32
15709;BMP180;7954;51.914;8.420;2023-07-20T06:26:00;100200.47;;;22.47
15709;BMP180;7954;51.914;8.420;2023-07-20T06:28:28;100209.75;;;22.31
15709;BMP180;7954;51.914;8.420;2023-07-20T06:30:59;100213.78;;;22.29
15709;BMP180;7954;51.914;8.420;2023-07-20T06:33:28;100209.53;;;22.29
15709;BMP180;7954;51.914;8.420;2023-07-20T06:35:57;100208.75;;;22.44
15709;BMP180;7954;51.914;8.420;2023-07-20T06:38:25;100220.97;;;22.17
15709;BMP180;7954;51.914;8.420;2023-07-20T06:40:57;100215.03;;;22.39
15709;BMP180;7954;51.914;8.420;2023-07-20T06:43:47;100215.72;;;22.81
15709;BMP180;7954;51.914;8.420;2023-07-20T06:46:15;100215.03;;;23.12
15709;BMP180;7954;51.914;8.420;2023-07-20T06:48:43;100202.59;;;23.30
15709;BMP180;7954;51.914;8.420;2023-07-20T06:51:14;100208.31;;;23.50
15709;BMP180;7954;51.914;8.420;2023-07-20T06:53:43;100207.75;;;23.68
15709;BMP180;7954;51.914;8.420;2023-07-20T06:56:10;100213.22;;;23.78
15709;BMP180;7954;51.914;8.420;2023-07-20T06:58:39;100209.34;;;23.96
15709;BMP180;7954;51.914;8.420;2023-07-20T07:01:09;100204.53;;;23.99
15709;BMP180;7954;51.914;8.420;2023-07-20T07:03:36;100214.00;;;23.92
15709;BMP180;7954;51.914;8.420;2023-07-20T07:06:05;100214.19;;;23.94
15709;BMP180;7954;51.914;8.420;2023-07-20T07:08:33;100210.59;;;23.85
15709;BMP180;7954;51.914;8.420;2023-07-20T07:11:03;100213.47;;;23.50
15709;BMP180;7954;51.914;8.420;2023-07-20T07:13:32;100213.22;;;23.33
15709;BMP180;7954;51.914;8.420;2023-07-20T07:16:01;100226.22;;;23.64
15709;BMP180;7954;51.914;8.420;2023-07-20T07:18:36;100224.22;;;23.84
15709;BMP180;7954;51.914;8.420;2023-07-20T07:21:06;100219.84;;;23.98
15709;BMP180;7954;51.914;8.420;2023-07-20T07:23:34;100220.75;;;24.14
15709;BMP180;7954;51.914;8.420;2023-07-20T07:26:02;100228.63;;;24.38
15709;BMP180;7954;51.914;8.420;2023-07-20T07:28:31;100229.19;;;24.66
15709;BMP180;7954;51.914;8.420;2023-07-20T07:30:59;100229.72;;;24.94
15709;BMP180;7954;51.914;8.420;2023-07-20T07:33:27;100219.94;;;25.23
15709;BMP180;7954;51.914;8.420;2023-07-20T07:35:57;100215.50;;;25.45
15709;BMP180;7954;51.914;8.420;2023-07-20T07:38:28;100219.16;;;25.47
15709;BMP180;7954;51.914;8.420;2023-07-20T07:41:16;100222.50;;;25.46
15709;BMP180;7954;51.914;8.420;2023-07-20T07:43:44;100230.16;;;25.53
15709;BMP180;7954;51.914;8.420;2023-07-20T07:46:12;100221.19;;;25.58
15709;BMP180;7954;51.914;8.420;2023-07-20T07:48:42;100240.53;;;25.62
15709;BMP180;7954;51.914;8.420;2023-07-20T07:51:12;100235.06;;;25.67
15709;BMP180;7954;51.914;8.420;2023-07-20T07:53:42;100235.03;;;25.91
15709;BMP180;7954;51.914;8.420;2023-07-20T07:56:10;100229.28;;;25.85
15709;BMP180;7954;51.914;8.420;2023-07-20T07:58:38;100232.28;;;25.81
15709;BMP180;7954;51.914;8.420;2023-07-20T08:01:07;100238.44;;;26.07
15709;BMP180;7954;51.914;8.420;2023-07-20T08:03:36;100239.13;;;26.30
15709;BMP180;7954;51.914;8.420;2023-07-20T08:06:04;100232.94;;;26.36
15709;BMP180;7954;51.914;8.420;2023-07-20T08:08:34;100239.13;;;26.21
15709;BMP180;7954;51.914;8.420;2023-07-20T08:11:03;100231.38;;;25.81
15709;BMP180;7954;51.914;8.420;2023-07-20T08:13:33;100236.69;;;25.26
15709;BMP180;7954;51.914;8.420;2023-07-20T08:16:03;100241.91;;;24.95
15709;BMP180;7954;51.914;8.420;2023-07-20T08:18:31;100242.78;;;24.72
15709;BMP180;7954;51.914;8.420;2023-07-20T08:21:00;100253.22;;;24.65
15709;BMP180;7954;51.914;8.420;2023-07-20T08:23:28;100250.69;;;24.73
15709;BMP180;7954;51.914;8.420;2023-07-20T08:25:57;100241.53;;;24.68
15709;BMP180;7954;51.914;8.420;2023-07-20T08:28:27;100245.59;;;24.82
15709;BMP180;7954;51.914;8.420;2023-07-20T08:30:56;100253.81;;;24.63
15709;BMP180;7954;51.914;8.420;2023-07-20T08:33:25;100247.50;;;24.91
15709;BMP180;7954;51.914;8.420;2023-07-20T08:35:56;100249.19;;;25.30
15709;BMP180;7954;51.914;8.420;2023-07-20T08:38:24;100251.31;;;25.34
15709;BMP180;7954;51.914;8.420;2023-07-20T08:40:53;100240.81;;;25.32
15709;BMP180;7954;51.914;8.420;2023-07-20T08:43:24;100242.00;;;25.27
15709;BMP180;7954;51.914;8.420;2023-07-20T08:45:54;100239.53;;;25.21
15709;BMP180;7954;51.914;8.420;2023-07-20T08:48:24;100240.41;;;24.97
15709;BMP180;7954;51.914;8.420;2023-07-20T08:50:52;100248.63;;;25.02
15709;BMP180;7954;51.914;8.420;2023-07-20T08:53:20;100247.91;;;25.03
15709;BMP180;7954;51.914;8.420;2023-07-20T08:55:51;100255.13;;;24.98
15709;BMP180;7954;51.914;8.420;2023-07-20T08:58:19;100245.84;;;25.07
15709;BMP180;7954;51.914;8.420;2023-07-20T09:00:50;100237.34;;;25.32
15709;BMP180;7954;51.914;8.420;2023-07-20T09:03:19;100242.78;;;25.50
15709;BMP180;7954;51.914;8.420;2023-07-20T09:05:48;100240.81;;;25.80
15709;BMP180;7954;51.914;8.420;2023-07-20T09:08:17;100240.00;;;26.05
15709;BMP180;7954;51.914;8.420;2023-07-20T09:10:45;100234.53;;;26.19
15709;BMP180;7954;51.914;8.420;2023-07-20T09:13:14;100239.44;;;26.33
15709;BMP180;7954;51.914;8.420;2023-07-20T09:15:45;100234.31;;;26.50
15709;BMP180;7954;51.914;8.420;2023-07-20T09:18:24;100237.66;;;26.65
15709;BMP180;7954;51.914;8.420;2023-07-20T09:20:52;100231.91;;;27.02
15709;BMP180;7954;51.914;8.420;2023-07-20T09:23:29;100236.28;;;27.36
15709;BMP180;7954;51.914;8.420;2023-07-20T09:25:57;100230.56;;;27.57
15709;BMP180;7954;51.914;8.420;2023-07-20T09:28:26;100228.44;;;27.45
15709;BMP180;7954;51.914;8.420;2023-07-20T09:30:55;100223.34;;;27.11
15709;BMP180;7954;51.914;8.420;2023-07-20T09:33:26;100235.53;;;26.95
15709;BMP180;7954;51.914;8.420;2023-07-20T09:36:02;100240.41;;;26.50
15709;BMP180;7954;51.914;8.420;2023-07-20T09:38:50;100240.56;;;26.52
15709;BMP180;7954;51.914;8.420;2023-07-20T09:41:21;100238.91;;;26.77
15709;BMP180;7954;51.914;8.420;2023-07-20T09:43:52;100231.31;;;27.04
15709;BMP180;7954;51.914;8.420;2023-07-20T09:46:21;100218.28;;;27.13
15709;BMP180;7954;51.914;8.420;2023-07-20T09:48:53;100227.28;;;27.16
15709;BMP180;7954;51.914;8.420;2023-07-20T09:51:24;100226.38;;;27.24
15709;BMP180;7954;51.914;8.420;2023-07-20T09:53:52;100227.16;;;27.23
15709;BMP180;7954;51.914;8.420;2023-07-20T09:56:21;100219.38;;;26.98
15709;BMP180;7954;51.914;8.420;2023-07-20T09:58:50;100227.00;;;26.62
15709;BMP180;7954;51.914;8.420;2023-07-20T10:01:20;100232.06;;;26.12
15709;BMP180;7954;51.914;8.420;2023-07-20T10:03:58;100231.03;;;26.10
15709;BMP180;7954;51.914;8.420;2023-07-20T10:06:29;100233.63;;;26.27
15709;BMP180;7954;51.914;8.420;2023-07-20T10:09:03;100225.78;;;26.67
15709;BMP180;7954;51.914;8.420;2023-07-20T10:11:35;100229.16;;;26.92
15709;BMP180;7954;51.914;8.420;2023-07-20T10:14:04;100218.63;;;26.99
15709;BMP180;7954;51.914;8.420;2023-07-20T10:16:35;100222.59;;;26.87
15709;BMP180;7954;51.914;8.420;2023-07-20T10:19:11;100229.13;;;27.26
15709;BMP180;7954;51.914;8.420;2023-07-20T10:21:48;100226.13;;;27.65
15709;BMP180;7954;51.914;8.420;2023-07-20T10:24:25;100217.69;;;27.76
15709;BMP180;7954;51.914;8.420;2023-07-20T10:26:55;100220.19;;;27.57
15709;BMP180;7954;51.914;8.420;2023-07-20T10:29:23;100211.91;;;27.70
15709;BMP180;7954;51.914;8.420;2023-07-20T10:31:52;100214.19;;;27.75
15709;BMP180;7954;51.914;8.420;2023-07-20T10:34:25;100210.72;;;27.66
15709;BMP180;7954;51.914;8.420;2023-07-20T10:36:53;100204.13;;;27.96
15709;BMP180;7954;51.914;8.420;2023-07-20T10:39:25;100203.88;;;27.93
15709;BMP180;7954;51.914;8.420;2023-07-20T10:42:02;100201.22;;;28.02
15709;BMP180;7954;51.914;8.420;2023-07-20T10:44:30;100209.97;;;27.94
15709;BMP180;7954;51.914;8.420;2023-07-20T10:46:59;100211.66;;;28.20
15709;BMP180;7954;51.914;8.420;2023-07-20T10:49:32;100192.84;;;28.86
15709;BMP180;7954;51.914;8.420;2023-07-20T10:52:04;100190.41;;;29.16
15709;BMP180;7954;51.914;8.420;2023-07-20T10:54:34;100190.56;;;29.27
15709;BMP180;7954;51.914;8.420;2023-07-20T10:57:25;100199.34;;;29.38
15709;BMP180;7954;51.914;8.420;2023-07-20T11:00:08;100191.34;;;29.26
15709;BMP180;7954;51.914;8.420;2023-07-20T11:02:44;100192.97;;;28.88
15709;BMP180;7954;51.914;8.420;2023-07-20T11:05:35;100193.84;;;28.70
15709;BMP180;7954;51.914;8.420;2023-07-20T11:08:05;100187.31;;;28.65
15709;BMP180;7954;51.914;8.420;2023-07-20T11:10:33;100200.69;;;28.59
15709;BMP180;7954;51.914;8.420;2023-07-20T11:13:18;100203.00;;;28.38
15709;BMP180;7954;51.914;8.420;2023-07-20T11:15:46;100187.03;;;28.44
15709;BMP180;7954;51.914;8.420;2023-07-20T11:18:15;100195.69;;;28.34
15709;BMP180;7954;51.914;8.420;2023-07-20T11:20:44;100196.56;;;28.16
15709;BMP180;7954;51.914;8.420;2023-07-20T11:23:17;100192.59;;;28.11
15709;BMP180;7954;51.914;8.420;2023-07-20T11:25:45;100189.13;;;28.02
15709;BMP180;7954;51.914;8.420;2023-07-20T11:28:13;100200.22;;;28.18
15709;BMP180;7954;51.914;8.420;2023-07-20T11:30:41;100188.06;;;28.54
15709;BMP180;7954;51.914;8.420;2023-07-20T11:33:09;100185.72;;;28.94
15709;BMP180;7954;51.914;8.420;2023-07-20T11:35:43;100190.69;;;29.47
15709;BMP180;7954;51.914;8.420;2023-07-20T11:38:12;100178.97;;;29.52
15709;BMP180;7954;51.914;8.420;2023-07-20T11:40:44;100177.75;;;29.77
15709;BMP180;7954;51.914;8.420;2023-07-20T11:43:12;100177.16;;;29.51
15709;BMP180;7954;51.914;8.420;2023-07-20T11:45:44;100171.53;;;29.57
15709;BMP180;7954;51.914;8.420;2023-07-20T11:48:14;100171.72;;;29.68
15709;BMP180;7954;51.914;8.420;2023-07-20T11:50:44;100158.50;;;30.15
15709;BMP180;7954;51.914;8.420;2023-07-20T11:53:13;100158.78;;;30.18
15709;BMP180;7954;51.914;8.420;2023-07-20T11:55:42;100142.97;;;30.26
15709;BMP180;7954;51.914;8.420;2023-07-20T11:58:10;100158.13;;;30.40
15709;BMP180;7954;51.914;8.420;2023-07-20T12:00:39;100152.28;;;30.23
15709;BMP180;7954;51.914;8.420;2023-07-20T12:03:07;100155.00;;;30.04
15709;BMP180;7954;51.914;8.420;2023-07-20T12:05:37;100146.78;;;30.00
15709;BMP180;7954;51.914;8.420;2023-07-20T12:08:27;100157.19;;;30.10
15709;BMP180;7954;51.914;8.420;2023-07-20T12:10:55;100150.97;;;30.28
15709;BMP180;7954;51.914;8.420;2023-07-20T12:13:23;100153.00;;;30.71
15709;BMP180;7954;51.914;8.420;2023-07-20T12:15:53;100131.47;;;30.74
15709;BMP180;7954;51.914;8.420;2023-07-20T12:18:23;100129.31;;;30.59
15709;BMP180;7954;51.914;8.420;2023-07-20T12:20:58;100140.53;;;30.58
15709;BMP180;7954;51.914;8.420;2023-07-20T12:23:34;100134.16;;;30.44
15709;BMP180;7954;51.914;8.420;2023-07-20T12:26:03;100134.78;;;30.32
15709;BMP180;7954;51.914;8.420;2023-07-20T12:28:31;100138.72;;;30.07
15709;BMP180;7954;51.914;8.420;2023-07-20T12:31:00;100140.03;;;30.02
15709;BMP180;7954;51.914;8.420;2023-07-20T12:33:28;100137.66;;;30.05
15709;BMP180;7954;51.914;8.420;2023-07-20T12:35:56;100142.09;;;30.16
15709;BMP180;7954;51.914;8.420;2023-07-20T12:38:25;100146.06;;;30.72
15709;BMP180;7954;51.914;8.420;2023-07-20T12:40:56;100126.47;;;30.97
15709;BMP180;7954;51.914;8.420;2023-07-20T12:43:25;100127.91;;;30.93
15709;BMP180;7954;51.914;8.420;2023-07-20T12:45:53;100131.69;;;31.28
15709;BMP180;7954;51.914;8.420;2023-07-20T12:48:22;100133.75;;;31.75
15709;BMP180;7954;51.914;8.420;2023-07-20T12:50:50;100162.94;;;33.47
15709;BMP180;7954;51.914;8.420;2023-07-20T12:53:18;100154.78;;;34.77
15709;BMP180;7954;51.914;8.420;2023-07-20T12:55:46;100128.59;;;35.97
15709;BMP180;7954;51.914;8.420;2023-07-20T12:58:16;100087.06;;;35.38
15709;BMP180;7954;51.914;8.420;2023-07-20T13:00:44;100134.88;;;37.14
15709;BMP180;7954;51.914;8.420;2023-07-20T13:03:12;100115.56;;;39.05
15709;BMP180;7954;51.914;8.420;2023-07-20T13:05:56;100112.06;;;40.54
15709;BMP180;7954;51.914;8.420;2023-07-20T13:08:27;100089.88;;;40.93
15709;BMP180;7954;51.914;8.420;2023-07-20T13:10:55;100061.63;;;38.51
15709;BMP180;7954;51.914;8.420;2023-07-20T13:13:25;100109.28;;;37.57
15709;BMP180;7954;51.914;8.420;2023-07-20T13:15:53;100130.06;;;38.63
15709;BMP180;7954;51.914;8.420;2023-07-20T13:18:22;100128.50;;;39.53
15709;BMP180;7954;51.914;8.420;2023-07-20T13:20:49;100133.38;;;39.09
15709;BMP180;7954;51.914;8.420;2023-07-20T13:23:19;100062.78;;;40.00
15709;BMP180;7954;51.914;8.420;2023-07-20T13:25:48;100100.59;;;41.16
15709;BMP180;7954;51.914;8.420;2023-07-20T13:28:17;100127.69;;;40.10
15709;BMP180;7954;51.914;8.420;2023-07-20T13:30:47;100108.72;;;42.31
15709;BMP180;7954;51.914;8.420;2023-07-20T13:33:15;100099.16;;;43.68
15709;BMP180;7954;51.914;8.420;2023-07-20T13:35:44;100106.31;;;44.27
15709;BMP180;7954;51.914;8.420;2023-07-20T13:38:15;100113.56;;;45.33
15709;BMP180;7954;51.914;8.420;2023-07-20T13:40:43;100104.84;;;46.20
15709;BMP180;7954;51.914;8.420;2023-07-20T13:43:12;100025.78;;;45.47
15709;BMP180;7954;51.914;8.420;2023-07-20T13:45:40;100054.25;;;42.45
15709;BMP180;7954;51.914;8.420;2023-07-20T13:48:10;100073.75;;;39.52
15709;BMP180;7954;51.914;8.420;2023-07-20T13:50:43;100084.56;;;38.03
15709;BMP180;7954;51.914;8.420;2023-07-20T13:53:26;100091.72;;;36.38
15709;BMP180;7954;51.914;8.420;2023-07-20T13:55:58;100099.22;;;35.23
15709;BMP180;7954;51.914;8.420;2023-07-20T13:58:29;100099.50;;;34.37
15709;BMP180;7954;51.914;8.420;2023-07-20T14:00:57;100109.84;;;33.38
15709;BMP180;7954;51.914;8.420;2023-07-20T14:03:27;100121.31;;;33.05
15709;BMP180;7954;51.914;8.420;2023-07-20T14:05:55;100109.16;;;33.41
15709;BMP180;7954;51.914;8.420;2023-07-20T14:08:27;100113.56;;;33.18
15709;BMP180;7954;51.914;8.420;2023-07-20T14:10:56;100107.66;;;33.09
15709;BMP180;7954;51.914;8.420;2023-07-20T14:13:27;100121.19;;;32.92
15709;BMP180;7954;51.914;8.420;2023-07-20T14:16:12;100101.66;;;33.94
15709;BMP180;7954;51.914;8.420;2023-07-20T14:18:42;100148.63;;;37.08
15709;BMP180;7954;51.914;8.420;2023-07-20T14:21:15;100074.44;;;36.29
15709;BMP180;7954;51.914;8.420;2023-07-20T14:23:45;100080.06;;;34.85